sensor_id;sensor_type;location;lat;lon;timestamp;temperature;humidity
55369;DHT22;41247;49.736;8.752;2022-07-19T00:02:39;18.30;99.90
55369;DHT22;41247;49.736;8.752;2022-07-19T00:06:20;18.30;99.90
55369;DHT22;41247;49.736;8.752;2022-07-19T00:10:01;18.20;99.90
55369;DHT22;41247;49.736;8.752;2022-07-19T00:13:43;18.20;99.90
55369;DHT22;41247;49.736;8.752;2022-07-19T00:17:23;18.20;99.90
55369;DHT22;41247;49.736;8.752;2022-07-19T00:21:04;18.20;99.90
55369;DHT22;41247;49.736;8.752;2022-07-19T00:24:45;18.20;99.90
55369;DHT22;41247;49.736;8.752;2022-07-19T00:28:25;18.20;99.90
55369;DHT22;41247;49.736;8.752;2022-07-19T00:32:06;18.20;99.90
55369;DHT22;41247;49.736;8.752;2022-07-19T00:35:47;18.10;99.90
55369;DHT22;41247;49.736;8.752;2022-07-19T00:39:28;18.20;99.90
55369;DHT22;41247;49.736;8.752;2022-07-19T00:43:09;18.10;99.90
55369;DHT22;41247;49.736;8.752;2022-07-19T00:46:51;18.10;99.90
55369;DHT22;41247;49.736;8.752;2022-07-19T00:50:32;18.20;99.90
55369;DHT22;41247;49.736;8.752;2022-07-19T00:54:13;18.20;99.90
55369;DHT22;41247;49.736;8.752;2022-07-19T00:57:56;18.20;99.90
55369;DHT22;41247;49.736;8.752;2022-07-19T01:01:37;18.10;99.90
55369;DHT22;41247;49.736;8.752;2022-07-19T01:05:19;18.00;99.90
55369;DHT22;41247;49.736;8.752;2022-07-19T01:09:00;17.90;99.90
55369;DHT22;41247;49.736;8.752;2022-07-19T01:12:42;18.00;99.90
55369;DHT22;41247;49.736;8.752;2022-07-19T01:16:23;17.90;99.90
55369;DHT22;41247;49.736;8.752;2022-07-19T01:20:04;17.90;99.90
55369;DHT22;41247;49.736;8.752;2022-07-19T01:23:47;17.80;99.90
55369;DHT22;41247;49.736;8.752;2022-07-19T01:27:28;17.80;99.90
55369;DHT22;41247;49.736;8.752;2022-07-19T01:31:08;17.90;99.90
55369;DHT22;41247;49.736;8.752;2022-07-19T01:34:49;17.90;99.90
55369;DHT22;41247;49.736;8.752;2022-07-19T01:38:29;17.90;99.90
55369;DHT22;41247;49.736;8.752;2022-07-19T01:42:10;18.00;99.90
55369;DHT22;41247;49.736;8.752;2022-07-19T01:45:51;18.00;99.90
55369;DHT22;41247;49.736;8.752;2022-07-19T01:49:32;18.10;99.90
55369;DHT22;41247;49.736;8.752;2022-07-19T01:53:13;18.10;99.90
55369;DHT22;41247;49.736;8.752;2022-07-19T01:56:54;18.10;99.90
55369;DHT22;41247;49.736;8.752;2022-07-19T02:00:34;18.10;99.90
55369;DHT22;41247;49.736;8.752;2022-07-19T02:04:15;18.10;99.90
55369;DHT22;41247;49.736;8.752;2022-07-19T02:07:55;18.10;99.90
55369;DHT22;41247;49.736;8.752;2022-07-19T02:11:36;18.00;99.90
55369;DHT22;41247;49.736;8.752;2022-07-19T02:15:16;17.90;99.90
55369;DHT22;41247;49.736;8.752;2022-07-19T02:18:57;17.90;99.90
55369;DHT22;41247;49.736;8.752;2022-07-19T02:22:38;17.80;99.90
55369;DHT22;41247;49.736;8.752;2022-07-19T02:26:19;17.80;99.90
55369;DHT22;41247;49.736;8.752;2022-07-19T02:29:59;17.80;99.90
55369;DHT22;41247;49.736;8.752;2022-07-19T02:33:40;17.70;99.90
55369;DHT22;41247;49.736;8.752;2022-07-19T02:37:21;17.80;99.90
55369;DHT22;41247;49.736;8.752;2022-07-19T02:41:01;17.90;99.90
55369;DHT22;41247;49.736;8.752;2022-07-19T02:44:42;18.00;99.90
55369;DHT22;41247;49.736;8.752;2022-07-19T02:48:23;18.00;99.90
55369;DHT22;41247;49.736;8.752;2022-07-19T02:52:03;18.00;99.90
55369;DHT22;41247;49.736;8.752;2022-07-19T02:55:44;18.00;99.90
55369;DHT22;41247;49.736;8.752;2022-07-19T02:59:25;17.90;99.90
55369;DHT22;41247;49.736;8.752;2022-07-19T03:03:06;17.90;99.90
55369;DHT22;41247;49.736;8.752;2022-07-19T03:06:47;17.90;99.90
55369;DHT22;41247;49.736;8.752;2022-07-19T03:10:27;17.80;99.90
55369;DHT22;41247;49.736;8.752;2022-07-19T03:14:08;17.80;99.90
55369;DHT22;41247;49.736;8.752;2022-07-19T03:17:48;17.80;99.90
55369;DHT22;41247;49.736;8.752;2022-07-19T03:21:29;17.70;99.90
55369;DHT22;41247;49.736;8.752;2022-07-19T03:25:10;17.70;99.90
55369;DHT22;41247;49.736;8.752;2022-07-19T03:28:50;17.70;99.90
55369;DHT22;41247;49.736;8.752;2022-07-19T03:32:31;17.70;99.90
55369;DHT22;41247;49.736;8.752;2022-07-19T03:36:12;17.70;99.90
55369;DHT22;41247;49.736;8.752;2022-07-19T03:39:52;17.80;99.90
55369;DHT22;41247;49.736;8.752;2022-07-19T03:43:33;17.70;99.90
55369;DHT22;41247;49.736;8.752;2022-07-19T03:47:13;17.70;99.90
55369;DHT22;41247;49.736;8.752;2022-07-19T03:50:54;17.60;99.90
55369;DHT22;41247;49.736;8.752;2022-07-19T03:54:35;17.60;99.90
55369;DHT22;41247;49.736;8.752;2022-07-19T03:58:15;17.60;99.90
55369;DHT22;41247;49.736;8.752;2022-07-19T04:01:56;17.60;99.90
55369;DHT22;41247;49.736;8.752;2022-07-19T04:05:36;17.60;99.90
55369;DHT22;41247;49.736;8.752;2022-07-19T04:09:17;17.60;99.90
55369;DHT22;41247;49.736;8.752;2022-07-19T04:12:58;17.50;99.90
55369;DHT22;41247;49.736;8.752;2022-07-19T04:16:38;17.50;99.90
55369;DHT22;41247;49.736;8.752;2022-07-19T04:20:19;17.40;99.90
55369;DHT22;41247;49.736;8.752;2022-07-19T04:23:59;17.40;99.90
55369;DHT22;41247;49.736;8.752;2022-07-19T04:27:40;17.40;99.90
55369;DHT22;41247;49.736;8.752;2022-07-19T04:31:21;17.30;99.90
55369;DHT22;41247;49.736;8.752;2022-07-19T04:35:02;17.40;99.90
55369;DHT22;41247;49.736;8.752;2022-07-19T04:38:42;17.30;99.90
55369;DHT22;41247;49.736;8.752;2022-07-19T04:42:23;17.30;99.90
55369;DHT22;41247;49.736;8.752;2022-07-19T04:46:04;17.30;99.90
55369;DHT22;41247;49.736;8.752;2022-07-19T04:49:44;17.30;99.90
55369;DHT22;41247;49.736;8.752;2022-07-19T04:53:25;17.40;99.90
55369;DHT22;41247;49.736;8.752;2022-07-19T04:57:06;17.40;99.90
55369;DHT22;41247;49.736;8.752;2022-07-19T05:00:46;17.50;99.90
55369;DHT22;41247;49.736;8.752;2022-07-19T05:04:27;17.60;99.90
55369;DHT22;41247;49.736;8.752;2022-07-19T05:08:09;17.60;99.90
55369;DHT22;41247;49.736;8.752;2022-07-19T05:11:50;17.70;99.90
55369;DHT22;41247;49.736;8.752;2022-07-19T05:15:31;17.70;99.90
55369;DHT22;41247;49.736;8.752;2022-07-19T05:19:12;17.70;99.90
55369;DHT22;41247;49.736;8.752;2022-07-19T05:22:52;17.80;99.90
55369;DHT22;41247;49.736;8.752;2022-07-19T05:26:33;17.80;99.90
55369;DHT22;41247;49.736;8.752;2022-07-19T05:30:13;17.90;99.90
55369;DHT22;41247;49.736;8.752;2022-07-19T05:33:54;18.00;99.90
55369;DHT22;41247;49.736;8.752;2022-07-19T05:37:35;18.10;99.90
55369;DHT22;41247;49.736;8.752;2022-07-19T05:41:15;18.30;99.90
55369;DHT22;41247;49.736;8.752;2022-07-19T05:44:56;18.40;99.90
55369;DHT22;41247;49.736;8.752;2022-07-19T05:48:37;18.60;99.90
55369;DHT22;41247;49.736;8.752;2022-07-19T05:52:17;18.70;99.90
55369;DHT22;41247;49.736;8.752;2022-07-19T05:56:00;18.90;99.90
55369;DHT22;41247;49.736;8.752;2022-07-19T05:59:40;19.10;99.90
55369;DHT22;41247;49.736;8.752;2022-07-19T06:03:21;19.20;99.90
55369;DHT22;41247;49.736;8.752;2022-07-19T06:07:02;19.40;99.90
55369;DHT22;41247;49.736;8.752;2022-07-19T06:10:42;19.60;99.90
55369;DHT22;41247;49.736;8.752;2022-07-19T06:14:23;19.80;99.90
55369;DHT22;41247;49.736;8.752;2022-07-19T06:18:04;20.00;99.90
55369;DHT22;41247;49.736;8.752;2022-07-19T06:21:44;20.30;99.90
55369;DHT22;41247;49.736;8.752;2022-07-19T06:25:25;20.50;99.90
55369;DHT22;41247;49.736;8.752;2022-07-19T06:29:05;20.80;99.90
55369;DHT22;41247;49.736;8.752;2022-07-19T06:32:46;21.10;99.90
55369;DHT22;41247;49.736;8.752;2022-07-19T06:36:26;21.30;99.90
55369;DHT22;41247;49.736;8.752;2022-07-19T06:40:08;21.70;99.90
55369;DHT22;41247;49.736;8.752;2022-07-19T06:43:48;22.00;99.90
55369;DHT22;41247;49.736;8.752;2022-07-19T06:47:29;22.40;99.90
55369;DHT22;41247;49.736;8.752;2022-07-19T06:51:10;22.90;99.90
55369;DHT22;41247;49.736;8.752;2022-07-19T06:54:51;23.40;99.90
55369;DHT22;41247;49.736;8.752;2022-07-19T06:58:31;23.90;99.90
55369;DHT22;41247;49.736;8.752;2022-07-19T07:02:12;24.40;99.90
55369;DHT22;41247;49.736;8.752;2022-07-19T07:05:52;24.70;99.90
55369;DHT22;41247;49.736;8.752;2022-07-19T07:09:33;25.10;99.90
55369;DHT22;41247;49.736;8.752;2022-07-19T07:13:14;25.50;99.90
55369;DHT22;41247;49.736;8.752;2022-07-19T07:16:54;25.80;99.90
55369;DHT22;41247;49.736;8.752;2022-07-19T07:20:35;26.10;99.90
55369;DHT22;41247;49.736;8.752;2022-07-19T07:24:16;26.40;99.90
55369;DHT22;41247;49.736;8.752;2022-07-19T07:27:56;26.70;99.90
55369;DHT22;41247;49.736;8.752;2022-07-19T07:31:37;26.90;99.90
55369;DHT22;41247;49.736;8.752;2022-07-19T07:35:17;27.20;99.90
55369;DHT22;41247;49.736;8.752;2022-07-19T07:38:58;27.50;99.90
55369;DHT22;41247;49.736;8.752;2022-07-19T07:42:39;27.60;99.90
55369;DHT22;41247;49.736;8.752;2022-07-19T07:46:19;27.90;99.90
55369;DHT22;41247;49.736;8.752;2022-07-19T07:50:00;28.10;99.90
55369;DHT22;41247;49.736;8.752;2022-07-19T07:53:41;28.40;99.10
55369;DHT22;41247;49.736;8.752;2022-07-19T07:57:21;28.60;99.70
55369;DHT22;41247;49.736;8.752;2022-07-19T08:01:09;28.70;97.90
55369;DHT22;41247;49.736;8.752;2022-07-19T08:04:49;28.90;98.20
55369;DHT22;41247;49.736;8.752;2022-07-19T08:08:30;29.00;96.90
55369;DHT22;41247;49.736;8.752;2022-07-19T08:12:10;29.10;96.00
55369;DHT22;41247;49.736;8.752;2022-07-19T08:15:51;29.20;95.60
55369;DHT22;41247;49.736;8.752;2022-07-19T08:19:32;29.30;95.20
55369;DHT22;41247;49.736;8.752;2022-07-19T08:23:14;29.50;95.40
55369;DHT22;41247;49.736;8.752;2022-07-19T08:26:54;29.60;94.90
55369;DHT22;41247;49.736;8.752;2022-07-19T08:30:35;29.60;93.20
55369;DHT22;41247;49.736;8.752;2022-07-19T08:34:15;29.70;93.60
55369;DHT22;41247;49.736;8.752;2022-07-19T08:37:56;29.70;93.20
55369;DHT22;41247;49.736;8.752;2022-07-19T08:41:36;29.90;93.30
55369;DHT22;41247;49.736;8.752;2022-07-19T08:45:17;30.10;92.50
55369;DHT22;41247;49.736;8.752;2022-07-19T08:48:59;30.00;92.50
55369;DHT22;41247;49.736;8.752;2022-07-19T08:52:40;30.10;92.80
55369;DHT22;41247;49.736;8.752;2022-07-19T08:56:22;30.30;92.50
55369;DHT22;41247;49.736;8.752;2022-07-19T09:00:04;30.40;92.00
55369;DHT22;41247;49.736;8.752;2022-07-19T09:04:28;30.60;92.10
55369;DHT22;41247;49.736;8.752;2022-07-19T09:08:15;30.70;91.80
55369;DHT22;41247;49.736;8.752;2022-07-19T09:11:59;30.90;92.20
55369;DHT22;41247;49.736;8.752;2022-07-19T09:15:46;31.00;91.20
55369;DHT22;41247;49.736;8.752;2022-07-19T09:19:33;31.20;90.90
55369;DHT22;41247;49.736;8.752;2022-07-19T09:23:14;31.30;90.80
55369;DHT22;41247;49.736;8.752;2022-07-19T09:26:56;31.40;90.90
55369;DHT22;41247;49.736;8.752;2022-07-19T09:30:49;31.60;90.80
55369;DHT22;41247;49.736;8.752;2022-07-19T09:34:38;31.90;91.00
55369;DHT22;41247;49.736;8.752;2022-07-19T09:38:33;31.80;88.60
55369;DHT22;41247;49.736;8.752;2022-07-19T09:42:20;32.00;86.20
55369;DHT22;41247;49.736;8.752;2022-07-19T09:46:02;32.10;85.30
55369;DHT22;41247;49.736;8.752;2022-07-19T09:49:42;32.20;85.60
55369;DHT22;41247;49.736;8.752;2022-07-19T09:53:23;32.20;86.30
55369;DHT22;41247;49.736;8.752;2022-07-19T09:57:04;32.30;86.50
55369;DHT22;41247;49.736;8.752;2022-07-19T10:00:47;32.60;83.70
55369;DHT22;41247;49.736;8.752;2022-07-19T10:04:28;32.80;82.60
55369;DHT22;41247;49.736;8.752;2022-07-19T10:08:11;32.90;82.80
55369;DHT22;41247;49.736;8.752;2022-07-19T10:11:52;32.90;80.70
55369;DHT22;41247;49.736;8.752;2022-07-19T10:15:39;33.00;81.90
55369;DHT22;41247;49.736;8.752;2022-07-19T10:19:38;33.10;82.00
55369;DHT22;41247;49.736;8.752;2022-07-19T10:23:29;33.20;83.10
55369;DHT22;41247;49.736;8.752;2022-07-19T10:27:12;33.40;81.60
55369;DHT22;41247;49.736;8.752;2022-07-19T10:30:53;33.50;81.40
55369;DHT22;41247;49.736;8.752;2022-07-19T10:34:34;33.70;81.90
55369;DHT22;41247;49.736;8.752;2022-07-19T10:38:14;33.90;79.40
55369;DHT22;41247;49.736;8.752;2022-07-19T10:49:46;34.30;78.80
55369;DHT22;41247;49.736;8.752;2022-07-19T10:53:54;34.20;79.70
55369;DHT22;41247;49.736;8.752;2022-07-19T10:57:39;34.30;79.90
55369;DHT22;41247;49.736;8.752;2022-07-19T11:01:21;34.50;79.40
55369;DHT22;41247;49.736;8.752;2022-07-19T11:05:02;34.80;78.60
55369;DHT22;41247;49.736;8.752;2022-07-19T11:08:44;34.90;77.90
55369;DHT22;41247;49.736;8.752;2022-07-19T11:16:11;35.20;75.80
55369;DHT22;41247;49.736;8.752;2022-07-19T11:20:00;35.20;76.10
55369;DHT22;41247;49.736;8.752;2022-07-19T11:23:44;35.40;75.20
55369;DHT22;41247;49.736;8.752;2022-07-19T11:27:25;35.70;74.90
55369;DHT22;41247;49.736;8.752;2022-07-19T11:31:23;35.90;74.30
55369;DHT22;41247;49.736;8.752;2022-07-19T11:35:06;36.20;73.60
55369;DHT22;41247;49.736;8.752;2022-07-19T11:38:48;36.10;75.40
55369;DHT22;41247;49.736;8.752;2022-07-19T11:42:33;36.10;71.60
55369;DHT22;41247;49.736;8.752;2022-07-19T11:46:23;36.30;73.60
55369;DHT22;41247;49.736;8.752;2022-07-19T11:50:16;36.50;70.70
55369;DHT22;41247;49.736;8.752;2022-07-19T11:53:59;36.60;70.00
55369;DHT22;41247;49.736;8.752;2022-07-19T11:57:41;36.70;73.60
55369;DHT22;41247;49.736;8.752;2022-07-19T12:01:29;37.00;73.10
55369;DHT22;41247;49.736;8.752;2022-07-19T12:05:18;37.40;71.40
55369;DHT22;41247;49.736;8.752;2022-07-19T12:09:04;37.30;72.60
55369;DHT22;41247;49.736;8.752;2022-07-19T12:12:49;37.50;68.50
55369;DHT22;41247;49.736;8.752;2022-07-19T12:16:30;37.40;68.30
55369;DHT22;41247;49.736;8.752;2022-07-19T12:20:10;37.30;67.50
55369;DHT22;41247;49.736;8.752;2022-07-19T12:27:59;37.60;68.00
55369;DHT22;41247;49.736;8.752;2022-07-19T12:31:44;38.00;71.00
55369;DHT22;41247;49.736;8.752;2022-07-19T12:35:24;38.10;69.00
55369;DHT22;41247;49.736;8.752;2022-07-19T12:39:26;38.30;69.50
55369;DHT22;41247;49.736;8.752;2022-07-19T12:43:09;38.40;68.40
55369;DHT22;41247;49.736;8.752;2022-07-19T12:46:49;38.40;67.60
55369;DHT22;41247;49.736;8.752;2022-07-19T12:50:39;38.60;68.30
55369;DHT22;41247;49.736;8.752;2022-07-19T12:54:21;38.60;67.50
55369;DHT22;41247;49.736;8.752;2022-07-19T12:58:04;38.90;67.90
55369;DHT22;41247;49.736;8.752;2022-07-19T13:01:46;38.90;65.70
55369;DHT22;41247;49.736;8.752;2022-07-19T13:05:27;38.80;66.20
55369;DHT22;41247;49.736;8.752;2022-07-19T13:09:09;39.10;67.60
55369;DHT22;41247;49.736;8.752;2022-07-19T13:12:50;39.30;63.50
55369;DHT22;41247;49.736;8.752;2022-07-19T13:16:32;39.00;67.80
55369;DHT22;41247;49.736;8.752;2022-07-19T13:20:13;39.00;62.60
55369;DHT22;41247;49.736;8.752;2022-07-19T13:23:54;39.10;67.70
55369;DHT22;41247;49.736;8.752;2022-07-19T13:27:34;39.10;67.10
55369;DHT22;41247;49.736;8.752;2022-07-19T13:31:16;39.40;64.10
55369;DHT22;41247;49.736;8.752;2022-07-19T13:34:56;39.30;62.60
55369;DHT22;41247;49.736;8.752;2022-07-19T13:38:37;39.40;61.60
55369;DHT22;41247;49.736;8.752;2022-07-19T13:42:18;39.30;67.20
55369;DHT22;41247;49.736;8.752;2022-07-19T13:45:58;39.50;63.10
55369;DHT22;41247;49.736;8.752;2022-07-19T13:49:39;39.70;65.20
55369;DHT22;41247;49.736;8.752;2022-07-19T13:53:20;39.90;64.50
55369;DHT22;41247;49.736;8.752;2022-07-19T13:57:00;40.00;63.20
55369;DHT22;41247;49.736;8.752;2022-07-19T14:00:42;40.00;64.60
55369;DHT22;41247;49.736;8.752;2022-07-19T14:04:23;40.30;65.60
55369;DHT22;41247;49.736;8.752;2022-07-19T14:08:03;40.50;63.00
55369;DHT22;41247;49.736;8.752;2022-07-19T14:11:44;40.60;59.20
55369;DHT22;41247;49.736;8.752;2022-07-19T14:15:25;40.40;63.20
55369;DHT22;41247;49.736;8.752;2022-07-19T14:19:05;40.60;59.20
55369;DHT22;41247;49.736;8.752;2022-07-19T14:22:46;40.60;60.70
55369;DHT22;41247;49.736;8.752;2022-07-19T14:26:27;40.70;60.00
55369;DHT22;41247;49.736;8.752;2022-07-19T14:30:08;40.60;59.70
55369;DHT22;41247;49.736;8.752;2022-07-19T14:33:49;40.80;61.70
55369;DHT22;41247;49.736;8.752;2022-07-19T14:37:29;41.00;60.10
55369;DHT22;41247;49.736;8.752;2022-07-19T14:41:10;40.50;57.20
55369;DHT22;41247;49.736;8.752;2022-07-19T14:44:50;40.00;61.10
55369;DHT22;41247;49.736;8.752;2022-07-19T14:48:31;40.10;58.00
55369;DHT22;41247;49.736;8.752;2022-07-19T14:52:12;40.20;59.30
55369;DHT22;41247;49.736;8.752;2022-07-19T14:55:52;40.40;57.80
55369;DHT22;41247;49.736;8.752;2022-07-19T14:59:33;40.50;59.30
55369;DHT22;41247;49.736;8.752;2022-07-19T15:03:13;40.80;60.00
55369;DHT22;41247;49.736;8.752;2022-07-19T15:06:54;41.10;59.50
55369;DHT22;41247;49.736;8.752;2022-07-19T15:10:34;41.30;58.30
55369;DHT22;41247;49.736;8.752;2022-07-19T15:14:15;41.40;57.20
55369;DHT22;41247;49.736;8.752;2022-07-19T15:17:56;41.10;60.50
55369;DHT22;41247;49.736;8.752;2022-07-19T15:21:36;41.50;58.90
55369;DHT22;41247;49.736;8.752;2022-07-19T15:25:17;41.40;57.70
55369;DHT22;41247;49.736;8.752;2022-07-19T15:28:58;41.20;59.20
55369;DHT22;41247;49.736;8.752;2022-07-19T15:32:38;41.40;60.40
55369;DHT22;41247;49.736;8.752;2022-07-19T15:36:19;41.60;58.80
55369;DHT22;41247;49.736;8.752;2022-07-19T15:40:00;41.70;56.50
55369;DHT22;41247;49.736;8.752;2022-07-19T15:43:42;41.40;58.80
55369;DHT22;41247;49.736;8.752;2022-07-19T15:47:23;41.10;55.40
55369;DHT22;41247;49.736;8.752;2022-07-19T15:51:06;40.50;57.50
55369;DHT22;41247;49.736;8.752;2022-07-19T15:54:47;40.30;60.60
55369;DHT22;41247;49.736;8.752;2022-07-19T15:58:28;39.60;61.30
55369;DHT22;41247;49.736;8.752;2022-07-19T16:02:09;38.90;61.50
55369;DHT22;41247;49.736;8.752;2022-07-19T16:05:49;38.10;58.50
55369;DHT22;41247;49.736;8.752;2022-07-19T16:09:30;38.00;60.30
55369;DHT22;41247;49.736;8.752;2022-07-19T16:13:11;38.70;61.30
55369;DHT22;41247;49.736;8.752;2022-07-19T16:16:51;39.80;59.90
55369;DHT22;41247;49.736;8.752;2022-07-19T16:20:32;40.00;57.70
55369;DHT22;41247;49.736;8.752;2022-07-19T16:24:13;40.40;57.60
55369;DHT22;41247;49.736;8.752;2022-07-19T16:27:53;40.90;58.10
55369;DHT22;41247;49.736;8.752;2022-07-19T16:31:34;42.00;57.30
55369;DHT22;41247;49.736;8.752;2022-07-19T16:35:15;40.10;58.30
55369;DHT22;41247;49.736;8.752;2022-07-19T16:38:55;38.70;62.00
55369;DHT22;41247;49.736;8.752;2022-07-19T16:42:36;37.80;59.70
55369;DHT22;41247;49.736;8.752;2022-07-19T16:46:17;37.10;63.50
55369;DHT22;41247;49.736;8.752;2022-07-19T16:49:58;36.60;63.40
55369;DHT22;41247;49.736;8.752;2022-07-19T16:53:38;36.10;60.00
55369;DHT22;41247;49.736;8.752;2022-07-19T16:57:19;35.90;60.20
55369;DHT22;41247;49.736;8.752;2022-07-19T17:00:59;35.50;61.70
55369;DHT22;41247;49.736;8.752;2022-07-19T17:04:40;35.40;61.90
55369;DHT22;41247;49.736;8.752;2022-07-19T17:08:21;35.20;62.20
55369;DHT22;41247;49.736;8.752;2022-07-19T17:12:01;35.30;60.20
55369;DHT22;41247;49.736;8.752;2022-07-19T17:15:42;35.20;64.00
55369;DHT22;41247;49.736;8.752;2022-07-19T17:19:25;34.90;65.30
55369;DHT22;41247;49.736;8.752;2022-07-19T17:23:06;34.60;62.30
55369;DHT22;41247;49.736;8.752;2022-07-19T17:26:47;34.50;66.40
55369;DHT22;41247;49.736;8.752;2022-07-19T17:30:28;34.40;63.60
55369;DHT22;41247;49.736;8.752;2022-07-19T17:34:09;34.20;62.40
55369;DHT22;41247;49.736;8.752;2022-07-19T17:37:50;34.00;68.00
55369;DHT22;41247;49.736;8.752;2022-07-19T17:41:30;33.80;71.00
55369;DHT22;41247;49.736;8.752;2022-07-19T17:45:11;33.60;68.30
55369;DHT22;41247;49.736;8.752;2022-07-19T17:48:52;33.30;70.00
55369;DHT22;41247;49.736;8.752;2022-07-19T17:52:32;33.00;68.30
55369;DHT22;41247;49.736;8.752;2022-07-19T17:56:13;32.80;73.00
55369;DHT22;41247;49.736;8.752;2022-07-19T17:59:54;32.60;74.80
55369;DHT22;41247;49.736;8.752;2022-07-19T18:03:34;32.20;73.30
55369;DHT22;41247;49.736;8.752;2022-07-19T18:07:15;31.90;70.30
55369;DHT22;41247;49.736;8.752;2022-07-19T18:10:55;32.00;68.10
55369;DHT22;41247;49.736;8.752;2022-07-19T18:14:36;31.80;67.40
55369;DHT22;41247;49.736;8.752;2022-07-19T18:18:17;31.60;67.60
55369;DHT22;41247;49.736;8.752;2022-07-19T18:21:57;31.40;75.50
55369;DHT22;41247;49.736;8.752;2022-07-19T18:25:38;31.00;79.00
55369;DHT22;41247;49.736;8.752;2022-07-19T18:29:19;30.70;75.70
55369;DHT22;41247;49.736;8.752;2022-07-19T18:32:59;30.30;82.40
55369;DHT22;41247;49.736;8.752;2022-07-19T18:36:40;29.90;84.40
55369;DHT22;41247;49.736;8.752;2022-07-19T18:40:21;29.50;86.10
55369;DHT22;41247;49.736;8.752;2022-07-19T18:44:01;29.10;85.00
55369;DHT22;41247;49.736;8.752;2022-07-19T18:47:42;28.70;87.90
55369;DHT22;41247;49.736;8.752;2022-07-19T18:51:23;28.40;90.00
55369;DHT22;41247;49.736;8.752;2022-07-19T18:55:04;28.00;90.90
55369;DHT22;41247;49.736;8.752;2022-07-19T18:58:46;27.80;92.20
55369;DHT22;41247;49.736;8.752;2022-07-19T19:02:26;27.50;92.50
55369;DHT22;41247;49.736;8.752;2022-07-19T19:06:07;27.10;92.80
55369;DHT22;41247;49.736;8.752;2022-07-19T19:09:48;26.80;93.10
55369;DHT22;41247;49.736;8.752;2022-07-19T19:13:29;26.50;93.80
55369;DHT22;41247;49.736;8.752;2022-07-19T19:17:10;26.20;94.30
55369;DHT22;41247;49.736;8.752;2022-07-19T19:20:50;25.90;94.30
55369;DHT22;41247;49.736;8.752;2022-07-19T19:24:31;25.60;95.10
55369;DHT22;41247;49.736;8.752;2022-07-19T19:28:12;25.30;94.00
55369;DHT22;41247;49.736;8.752;2022-07-19T19:31:54;25.10;94.00
55369;DHT22;41247;49.736;8.752;2022-07-19T19:35:36;24.90;93.70
55369;DHT22;41247;49.736;8.752;2022-07-19T19:39:16;24.80;93.40
55369;DHT22;41247;49.736;8.752;2022-07-19T19:42:58;24.70;93.90
55369;DHT22;41247;49.736;8.752;2022-07-19T19:46:38;24.50;94.20
55369;DHT22;41247;49.736;8.752;2022-07-19T19:50:19;24.40;94.10
55369;DHT22;41247;49.736;8.752;2022-07-19T19:54:00;24.30;94.10
55369;DHT22;41247;49.736;8.752;2022-07-19T19:57:41;24.20;94.80
55369;DHT22;41247;49.736;8.752;2022-07-19T20:01:22;24.00;94.30
55369;DHT22;41247;49.736;8.752;2022-07-19T20:05:03;23.90;95.30
55369;DHT22;41247;49.736;8.752;2022-07-19T20:08:44;23.80;96.40
55369;DHT22;41247;49.736;8.752;2022-07-19T20:12:25;23.70;96.10
55369;DHT22;41247;49.736;8.752;2022-07-19T20:16:05;23.60;96.30
55369;DHT22;41247;49.736;8.752;2022-07-19T20:19:46;23.40;95.60
55369;DHT22;41247;49.736;8.752;2022-07-19T20:23:27;23.30;95.70
55369;DHT22;41247;49.736;8.752;2022-07-19T20:27:08;23.30;95.30
55369;DHT22;41247;49.736;8.752;2022-07-19T20:30:49;23.30;95.60
55369;DHT22;41247;49.736;8.752;2022-07-19T20:34:29;23.30;95.30
55369;DHT22;41247;49.736;8.752;2022-07-19T20:38:10;23.30;95.30
55369;DHT22;41247;49.736;8.752;2022-07-19T20:41:51;23.20;93.90
55369;DHT22;41247;49.736;8.752;2022-07-19T20:45:31;23.30;94.40
55369;DHT22;41247;49.736;8.752;2022-07-19T20:49:12;23.30;93.70
55369;DHT22;41247;49.736;8.752;2022-07-19T20:52:52;23.30;93.90
55369;DHT22;41247;49.736;8.752;2022-07-19T20:56:33;23.30;93.00
55369;DHT22;41247;49.736;8.752;2022-07-19T21:00:14;23.60;92.70
55369;DHT22;41247;49.736;8.752;2022-07-19T21:03:55;23.70;93.10
55369;DHT22;41247;49.736;8.752;2022-07-19T21:07:35;23.70;93.40
55369;DHT22;41247;49.736;8.752;2022-07-19T21:11:16;23.70;93.70
55369;DHT22;41247;49.736;8.752;2022-07-19T21:14:57;23.80;92.20
55369;DHT22;41247;49.736;8.752;2022-07-19T21:18:37;23.80;92.30
55369;DHT22;41247;49.736;8.752;2022-07-19T21:22:18;23.80;92.80
55369;DHT22;41247;49.736;8.752;2022-07-19T21:25:59;23.90;90.20
55369;DHT22;41247;49.736;8.752;2022-07-19T21:29:40;24.20;92.00
55369;DHT22;41247;49.736;8.752;2022-07-19T21:33:20;24.30;90.90
55369;DHT22;41247;49.736;8.752;2022-07-19T21:37:02;24.50;90.00
55369;DHT22;41247;49.736;8.752;2022-07-19T21:40:43;24.70;90.00
55369;DHT22;41247;49.736;8.752;2022-07-19T21:44:24;24.80;89.50
55369;DHT22;41247;49.736;8.752;2022-07-19T21:48:04;25.00;87.00
55369;DHT22;41247;49.736;8.752;2022-07-19T21:51:46;25.20;87.40
55369;DHT22;41247;49.736;8.752;2022-07-19T21:55:27;25.40;88.80
55369;DHT22;41247;49.736;8.752;2022-07-19T21:59:07;25.50;85.80
55369;DHT22;41247;49.736;8.752;2022-07-19T22:02:48;25.50;85.80
55369;DHT22;41247;49.736;8.752;2022-07-19T22:06:28;25.70;83.70
55369;DHT22;41247;49.736;8.752;2022-07-19T22:10:10;26.00;85.00
55369;DHT22;41247;49.736;8.752;2022-07-19T22:13:51;26.10;83.30
55369;DHT22;41247;49.736;8.752;2022-07-19T22:17:31;26.20;83.10
55369;DHT22;41247;49.736;8.752;2022-07-19T22:21:12;26.30;82.60
55369;DHT22;41247;49.736;8.752;2022-07-19T22:24:53;26.40;82.50
55369;DHT22;41247;49.736;8.752;2022-07-19T22:28:33;26.30;82.90
55369;DHT22;41247;49.736;8.752;2022-07-19T22:32:14;26.30;83.50
55369;DHT22;41247;49.736;8.752;2022-07-19T22:35:55;26.40;81.70
55369;DHT22;41247;49.736;8.752;2022-07-19T22:39:35;26.40;82.10
55369;DHT22;41247;49.736;8.752;2022-07-19T22:43:16;26.30;81.80
55369;DHT22;41247;49.736;8.752;2022-07-19T22:46:57;26.40;82.70
55369;DHT22;41247;49.736;8.752;2022-07-19T22:50:38;26.40;82.00
55369;DHT22;41247;49.736;8.752;2022-07-19T22:54:19;26.50;82.30
55369;DHT22;41247;49.736;8.752;2022-07-19T22:58:00;26.60;81.10
55369;DHT22;41247;49.736;8.752;2022-07-19T23:01:41;26.80;81.10
55369;DHT22;41247;49.736;8.752;2022-07-19T23:05:21;26.80;81.00
55369;DHT22;41247;49.736;8.752;2022-07-19T23:09:02;26.80;81.90
55369;DHT22;41247;49.736;8.752;2022-07-19T23:12:42;26.70;81.70
55369;DHT22;41247;49.736;8.752;2022-07-19T23:16:23;26.70;81.30
55369;DHT22;41247;49.736;8.752;2022-07-19T23:20:05;26.80;81.50
55369;DHT22;41247;49.736;8.752;2022-07-19T23:23:46;26.70;81.70
55369;DHT22;41247;49.736;8.752;2022-07-19T23:27:27;26.60;82.00
55369;DHT22;41247;49.736;8.752;2022-07-19T23:31:07;26.80;81.90
55369;DHT22;41247;49.736;8.752;2022-07-19T23:34:48;26.80;82.20